Time;durP1;ratioP1;P1;durP2;ratioP2;P2;SDS_P1;SDS_P2;PMS_P1;PMS_P2;Temp;Humidity;BMP_temperature;BMP_pressure;BME280_temperature;BME280_humidity;BME280_pressure;Samples;Min_cycle;Max_cycle;Signal;HPM_P1;HPM_P2
2023/11/14 00:02:24;;;;;;;10.80;8.03;;;9.30;1.00;;;;;;5147365;27;20544;-70
2023/11/14 00:04:51;;;;;;;13.70;4.23;;;9.40;1.00;;;;;;5131327;27;20461;-71
2023/11/14 00:07:18;;;;;;;6.50;4.57;;;9.40;1.00;;;;;;5132052;27;20592;-74
2023/11/14 00:09:47;;;;;;;8.20;3.90;;;9.50;1.00;;;;;;5140531;27;20466;-74
2023/11/14 00:12:14;;;;;;;13.60;4.20;;;9.50;1.00;;;;;;5143848;27;20973;-74
2023/11/14 00:14:45;;;;;;;10.67;3.90;;;9.50;1.00;;;;;;5141222;27;21307;-76
2023/11/14 00:17:12;;;;;;;11.40;3.80;;;9.60;1.00;;;;;;5137751;27;20429;-74
2023/11/14 00:19:39;;;;;;;9.23;3.53;;;9.50;1.00;;;;;;5130546;27;20493;-74
2023/11/14 00:22:07;;;;;;;9.70;3.67;;;9.60;1.00;;;;;;5128688;27;20472;-74
2023/11/14 00:24:34;;;;;;;11.63;4.50;;;9.60;1.00;;;;;;5128513;27;20482;-74
2023/11/14 00:27:02;;;;;;;5.47;3.40;;;9.60;1.00;;;;;;5130733;27;20596;-75
2023/11/14 00:29:30;;;;;;;8.03;3.97;;;9.60;1.00;;;;;;5131044;27;20488;-74
2023/11/14 00:31:57;;;;;;;13.80;4.80;;;9.60;1.00;;;;;;5142071;27;21204;-75
2023/11/14 00:34:24;;;;;;;14.37;4.57;;;9.60;1.00;;;;;;5150170;27;20479;-74
2023/11/14 00:36:51;;;;;;;9.60;4.23;;;9.60;1.00;;;;;;5150759;27;20463;-73
2023/11/14 00:39:18;;;;;;;9.23;4.10;;;9.60;1.00;;;;;;5150900;27;20532;-73
2023/11/14 00:41:46;;;;;;;8.37;3.03;;;9.50;1.00;;;;;;5149468;27;20547;-74
2023/11/14 00:44:15;;;;;;;12.50;4.20;;;9.50;1.00;;;;;;5148207;27;20472;-74
2023/11/14 00:46:42;;;;;;;7.73;4.43;;;9.40;1.00;;;;;;5147537;27;22750;-74
2023/11/14 00:49:09;;;;;;;6.37;3.47;;;9.40;1.00;;;;;;5150005;27;20476;-75
2023/11/14 00:51:36;;;;;;;10.90;4.00;;;9.30;1.00;;;;;;5150563;27;20444;-74
2023/11/14 00:54:03;;;;;;;9.07;4.30;;;9.30;1.00;;;;;;5150088;27;20563;-75
2023/11/14 00:56:30;;;;;;;14.03;3.97;;;9.20;1.00;;;;;;5147600;27;20495;-74
2023/11/14 00:58:57;;;;;;;9.27;3.90;;;9.20;1.00;;;;;;5148181;27;20459;-74
2023/11/14 01:01:26;;;;;;;10.17;4.97;;;9.20;1.00;;;;;;5149816;27;20571;-74
2023/11/14 01:03:53;;;;;;;7.70;3.87;;;9.20;1.00;;;;;;5128936;27;20461;-76
2023/11/14 01:06:20;;;;;;;9.20;3.77;;;9.20;1.00;;;;;;5132784;27;20483;-73
2023/11/14 01:08:47;;;;;;;9.43;3.97;;;9.20;1.00;;;;;;5150988;27;20456;-73
2023/11/14 01:11:14;;;;;;;10.37;4.57;;;9.20;1.00;;;;;;5145743;27;20482;-75
2023/11/14 01:13:41;;;;;;;10.17;4.00;;;9.10;1.00;;;;;;5149579;27;20816;-75
2023/11/14 01:16:12;;;;;;;13.23;4.87;;;9.10;1.00;;;;;;5129012;27;20533;-75
2023/11/14 01:18:41;;;;;;;13.50;4.37;;;9.10;1.00;;;;;;5117248;27;20532;-72
2023/11/14 01:21:08;;;;;;;7.70;4.00;;;9.10;1.00;;;;;;5146983;27;20480;-69
2023/11/14 01:23:35;;;;;;;8.20;4.10;;;9.10;1.00;;;;;;5128647;27;20860;-71
2023/11/14 01:26:02;;;;;;;12.90;4.27;;;9.10;1.00;;;;;;5126550;27;20465;-71
2023/11/14 01:28:29;;;;;;;12.10;4.20;;;9.10;1.00;;;;;;5127772;27;20461;-71
2023/11/14 01:30:56;;;;;;;7.47;4.10;;;9.10;1.00;;;;;;5130769;27;20525;-74
2023/11/14 01:33:23;;;;;;;12.07;4.00;;;9.00;1.00;;;;;;5127091;27;20472;-71
2023/11/14 01:35:51;;;;;;;15.43;4.83;;;9.00;1.00;;;;;;5128107;27;20472;-73
2023/11/14 01:38:18;;;;;;;11.50;4.70;;;9.00;1.00;;;;;;5126229;27;21091;-70
2023/11/14 01:40:50;;;;;;;14.40;4.27;;;9.00;1.00;;;;;;5126363;27;20548;-70
2023/11/14 01:43:17;;;;;;;10.43;4.60;;;9.00;1.00;;;;;;5128271;27;20496;-70
2023/11/14 01:45:44;;;;;;;8.50;3.70;;;9.00;1.00;;;;;;5127926;27;20838;-70
2023/11/14 01:48:12;;;;;;;6.80;4.30;;;9.00;1.00;;;;;;5128375;27;21019;-72
2023/11/14 01:50:40;;;;;;;9.37;4.30;;;9.00;1.00;;;;;;5129240;27;20457;-70
2023/11/14 01:53:08;;;;;;;14.03;5.03;;;9.00;1.00;;;;;;5128783;27;20479;-70
2023/11/14 01:55:36;;;;;;;15.60;5.43;;;9.00;1.00;;;;;;5126141;27;20812;-72
2023/11/14 01:58:03;;;;;;;15.23;4.40;;;9.00;1.00;;;;;;5125577;27;20569;-69
2023/11/14 02:00:31;;;;;;;8.47;4.50;;;9.00;1.00;;;;;;5129083;27;20552;-71
2023/11/14 02:02:58;;;;;;;9.50;4.17;;;8.90;1.00;;;;;;5128507;27;20492;-72
2023/11/14 02:05:27;;;;;;;10.97;4.10;;;8.90;1.00;;;;;;5126217;27;20489;-70
2023/11/14 02:07:54;;;;;;;11.80;4.70;;;9.00;1.00;;;;;;5127891;27;20455;-69
2023/11/14 02:10:23;;;;;;;12.47;4.87;;;8.90;1.00;;;;;;5123952;27;20493;-70
2023/11/14 02:12:51;;;;;;;9.10;4.50;;;8.90;1.00;;;;;;5127677;27;20521;-70
2023/11/14 02:15:18;;;;;;;12.97;5.27;;;8.90;1.00;;;;;;5123914;27;20554;-72
2023/11/14 02:17:45;;;;;;;11.57;4.47;;;8.90;1.00;;;;;;5122052;27;20465;-71
2023/11/14 02:20:12;;;;;;;13.77;5.13;;;8.90;1.00;;;;;;5125870;27;20536;-72
2023/11/14 02:22:39;;;;;;;13.43;4.53;;;8.90;1.00;;;;;;5128743;27;20551;-70
2023/11/14 02:25:09;;;;;;;14.03;5.30;;;8.90;1.00;;;;;;5128406;27;20928;-70
2023/11/14 02:27:37;;;;;;;9.20;4.90;;;8.90;1.00;;;;;;5128037;27;20445;-70
2023/11/14 02:30:04;;;;;;;10.37;4.63;;;8.80;1.00;;;;;;5126976;27;20964;-71
2023/11/14 02:32:31;;;;;;;10.67;4.67;;;8.80;1.00;;;;;;5129130;27;20471;-70
2023/11/14 02:34:58;;;;;;;14.07;4.63;;;8.80;1.00;;;;;;5130656;27;20456;-70
2023/11/14 02:37:25;;;;;;;11.60;4.87;;;8.80;1.00;;;;;;5128318;27;20472;-72
2023/11/14 02:39:51;;;;;;;14.53;5.27;;;8.80;1.00;;;;;;5126107;27;20544;-70
2023/11/14 02:42:19;;;;;;;12.47;5.33;;;8.80;1.00;;;;;;5126463;27;20575;-70
2023/11/14 02:44:46;;;;;;;6.60;4.23;;;8.80;1.00;;;;;;5125051;27;20524;-71
2023/11/14 02:47:14;;;;;;;9.77;5.30;;;8.80;1.00;;;;;;5127724;27;20493;-70
2023/11/14 02:49:56;;;;;;;11.47;4.93;;;8.80;1.00;;;;;;5125728;27;20552;-71
2023/11/14 02:52:23;;;;;;;11.73;4.83;;;8.80;1.00;;;;;;5127446;27;20473;-72
2023/11/14 02:54:50;;;;;;;14.40;4.50;;;8.80;1.00;;;;;;5123991;27;20457;-72
2023/11/14 02:57:19;;;;;;;11.17;4.40;;;8.80;1.00;;;;;;5126018;27;20985;-72
2023/11/14 02:59:47;;;;;;;13.77;5.27;;;8.70;1.00;;;;;;5129021;27;20465;-69
2023/11/14 03:02:14;;;;;;;14.93;4.77;;;8.80;1.00;;;;;;5127697;27;20457;-69
2023/11/14 03:04:41;;;;;;;14.70;5.10;;;8.80;1.00;;;;;;5127719;27;20461;-69
2023/11/14 03:07:08;;;;;;;12.20;4.20;;;8.80;1.00;;;;;;5124707;27;20541;-70
2023/11/14 03:09:35;;;;;;;9.67;5.03;;;8.90;1.00;;;;;;5127882;27;20526;-72
2023/11/14 03:12:02;;;;;;;10.17;4.70;;;9.00;1.00;;;;;;5126321;27;20501;-71
2023/11/14 03:14:30;;;;;;;10.50;5.10;;;9.00;1.00;;;;;;5128252;27;20449;-70
2023/11/14 03:16:58;;;;;;;10.50;5.00;;;9.10;1.00;;;;;;5128472;27;20480;-71
2023/11/14 03:19:25;;;;;;;10.13;4.83;;;9.20;1.00;;;;;;5127316;27;20468;-69
2023/11/14 03:21:52;;;;;;;10.50;4.80;;;9.20;1.00;;;;;;5127932;27;20460;-73
2023/11/14 03:24:19;;;;;;;12.80;5.20;;;9.30;1.00;;;;;;5129072;27;20971;-70
2023/11/14 03:26:45;;;;;;;11.33;4.20;;;9.40;1.00;;;;;;5127881;27;20467;-71
2023/11/14 03:29:12;;;;;;;8.40;4.30;;;9.50;1.00;;;;;;5128678;27;20540;-71
2023/11/14 03:31:40;;;;;;;8.60;4.20;;;9.60;1.00;;;;;;5127613;27;20474;-71
2023/11/14 03:34:07;;;;;;;7.00;4.27;;;9.60;1.00;;;;;;5127037;27;20539;-70
2023/11/14 03:36:34;;;;;;;8.40;3.87;;;9.70;1.00;;;;;;5126646;27;20469;-70
2023/11/14 03:39:01;;;;;;;12.53;3.97;;;9.70;1.00;;;;;;5128769;27;20469;-73
2023/11/14 03:41:28;;;;;;;11.37;3.87;;;9.70;1.00;;;;;;5125779;27;20481;-70
2023/11/14 03:43:56;;;;;;;6.47;3.80;;;9.70;1.00;;;;;;5146978;27;20459;-71
2023/11/14 03:46:23;;;;;;;8.17;4.30;;;9.70;1.00;;;;;;5145947;27;20505;-71
2023/11/14 03:48:51;;;;;;;8.10;3.43;;;9.80;1.00;;;;;;5127060;27;25031;-71
2023/11/14 03:51:18;;;;;;;11.00;4.30;;;9.80;1.00;;;;;;5125832;27;20465;-77
2023/11/14 03:53:45;;;;;;;7.03;3.47;;;9.90;1.00;;;;;;5127944;27;20450;-70
2023/11/14 03:56:12;;;;;;;11.37;3.67;;;9.90;1.00;;;;;;5127626;27;20526;-69
2023/11/14 03:58:40;;;;;;;9.93;4.37;;;10.00;1.00;;;;;;5130178;27;20464;-70
2023/11/14 04:01:07;;;;;;;7.30;4.27;;;10.00;1.00;;;;;;5151487;27;20474;-70
2023/11/14 04:03:34;;;;;;;10.10;3.77;;;10.00;1.00;;;;;;5143375;27;20457;-73
2023/11/14 04:06:03;;;;;;;9.67;3.90;;;10.00;1.00;;;;;;5130232;27;20460;-71
2023/11/14 04:08:30;;;;;;;9.40;3.97;;;10.00;1.00;;;;;;5130811;27;20524;-73
2023/11/14 04:10:57;;;;;;;9.40;3.77;;;10.00;1.00;;;;;;5141944;27;20482;-70
2023/11/14 04:13:24;;;;;;;11.97;3.00;;;9.90;1.00;;;;;;5153644;27;20532;-71
2023/11/14 04:15:51;;;;;;;12.67;3.73;;;9.90;1.00;;;;;;5150869;27;20565;-71
2023/11/14 04:18:18;;;;;;;9.87;3.23;;;9.90;1.00;;;;;;5142058;27;21232;-70
2023/11/14 04:20:46;;;;;;;13.90;4.20;;;9.90;1.00;;;;;;5132175;27;20468;-70
2023/11/14 04:23:16;;;;;;;14.20;4.53;;;9.90;1.00;;;;;;5144413;27;20443;-72
2023/11/14 04:25:43;;;;;;;7.70;3.30;;;9.90;1.00;;;;;;5149386;27;20460;-70
2023/11/14 04:28:10;;;;;;;8.90;4.00;;;9.90;1.00;;;;;;5149596;27;20460;-69
2023/11/14 04:30:37;;;;;;;7.50;3.17;;;9.90;1.00;;;;;;5130666;27;20460;-70
2023/11/14 04:33:04;;;;;;;9.93;4.17;;;9.90;1.00;;;;;;5130465;27;20456;-71
2023/11/14 04:35:31;;;;;;;7.00;3.77;;;9.90;1.00;;;;;;5126647;27;20464;-71
2023/11/14 04:37:58;;;;;;;8.70;2.83;;;9.90;1.00;;;;;;5141394;27;20464;-70
2023/11/14 04:40:26;;;;;;;13.33;4.30;;;9.90;1.00;;;;;;5150290;27;20630;-70
2023/11/14 04:42:53;;;;;;;10.20;3.70;;;9.90;1.00;;;;;;5150362;27;20535;-70
2023/11/14 04:45:21;;;;;;;13.23;4.50;;;9.90;1.00;;;;;;5145479;27;20456;-71
2023/11/14 04:47:48;;;;;;;6.27;3.10;;;9.90;1.00;;;;;;5131271;27;20465;-69
2023/11/14 04:50:19;;;;;;;10.50;3.73;;;10.00;1.00;;;;;;5141068;27;20487;-70
2023/11/14 04:52:46;;;;;;;10.70;3.73;;;10.00;1.00;;;;;;5145773;27;20532;-70
2023/11/14 04:55:13;;;;;;;7.13;2.87;;;10.00;1.00;;;;;;5134001;27;20474;-75
2023/11/14 04:57:42;;;;;;;8.70;3.17;;;10.00;1.00;;;;;;5141257;27;20456;-75
2023/11/14 05:00:11;;;;;;;11.50;3.77;;;10.00;1.00;;;;;;5127037;27;20473;-71
2023/11/14 05:02:38;;;;;;;9.10;3.13;;;10.00;1.00;;;;;;5124366;27;20453;-70
2023/11/14 05:05:09;;;;;;;9.57;3.70;;;10.00;1.00;;;;;;5124562;27;20586;-69
2023/11/14 05:07:36;;;;;;;11.23;3.50;;;10.00;1.00;;;;;;5130805;27;20461;-70
2023/11/14 05:10:03;;;;;;;9.00;3.50;;;10.00;1.00;;;;;;5127820;27;20544;-71
2023/11/14 05:12:30;;;;;;;9.47;3.73;;;10.10;1.00;;;;;;5127844;27;20555;-72
2023/11/14 05:14:59;;;;;;;16.77;4.67;;;10.10;1.00;;;;;;5149025;27;20504;-72
2023/11/14 05:17:25;;;;;;;12.03;4.83;;;10.10;1.00;;;;;;5151521;27;20471;-72
2023/11/14 05:19:54;;;;;;;14.10;4.97;;;10.20;1.00;;;;;;5146247;27;20575;-71
2023/11/14 05:22:23;;;;;;;10.57;2.90;;;10.20;1.00;;;;;;5143664;27;20451;-70
2023/11/14 05:24:50;;;;;;;15.90;4.67;;;10.20;1.00;;;;;;5129832;27;20488;-74
2023/11/14 05:27:16;;;;;;;8.77;3.93;;;10.20;1.00;;;;;;5129238;27;20492;-69
2023/11/14 05:29:43;;;;;;;10.70;4.03;;;10.20;1.00;;;;;;5127190;27;20563;-71
2023/11/14 05:32:11;;;;;;;8.30;3.70;;;10.20;1.00;;;;;;5135632;27;21687;-70
2023/11/14 05:34:39;;;;;;;7.97;3.20;;;10.20;1.00;;;;;;5128808;27;20899;-69
2023/11/14 05:37:07;;;;;;;8.70;2.87;;;10.20;1.00;;;;;;5130750;27;20505;-69
2023/11/14 05:39:34;;;;;;;8.00;2.97;;;10.20;1.00;;;;;;5137902;27;20464;-69
2023/11/14 05:42:02;;;;;;;7.17;3.23;;;10.30;1.00;;;;;;5134208;27;20545;-72
2023/11/14 05:44:29;;;;;;;9.63;3.10;;;10.30;1.00;;;;;;5130176;27;20454;-71
2023/11/14 05:46:56;;;;;;;8.33;3.43;;;10.30;1.00;;;;;;5138430;27;20444;-71
2023/11/14 05:49:27;;;;;;;9.10;3.10;;;10.30;1.00;;;;;;5130777;27;20565;-72
2023/11/14 05:51:55;;;;;;;8.80;4.10;;;10.30;1.00;;;;;;5123201;27;20600;-71
2023/11/14 05:54:21;;;;;;;14.00;4.37;;;10.30;1.00;;;;;;5141505;27;20858;-69
2023/11/14 05:56:52;;;;;;;10.00;2.83;;;10.30;1.00;;;;;;5129547;27;20568;-75
2023/11/14 05:59:19;;;;;;;6.87;3.40;;;10.30;1.00;;;;;;5146938;27;20481;-75
2023/11/14 06:01:47;;;;;;;9.27;3.17;;;10.40;1.00;;;;;;5134703;27;20535;-75
2023/11/14 06:04:14;;;;;;;12.50;2.97;;;10.40;1.00;;;;;;5153979;27;20540;-78
2023/11/14 06:06:43;;;;;;;9.27;3.73;;;10.40;1.00;;;;;;5144404;27;20513;-77
2023/11/14 06:09:10;;;;;;;10.63;3.60;;;10.40;1.00;;;;;;5153293;27;20525;-75
2023/11/14 06:11:41;;;;;;;10.30;3.37;;;10.50;1.00;;;;;;5148611;27;20451;-79
2023/11/14 06:14:09;;;;;;;12.47;4.40;;;10.50;1.00;;;;;;5135933;27;20555;-73
2023/11/14 06:16:37;;;;;;;14.23;3.23;;;10.50;1.00;;;;;;5129035;27;20482;-77
2023/11/14 06:19:05;;;;;;;8.77;2.70;;;10.60;1.00;;;;;;5129551;27;21006;-78
2023/11/14 06:21:32;;;;;;;4.90;3.67;;;10.60;1.00;;;;;;5128003;27;20481;-76
2023/11/14 06:24:00;;;;;;;7.23;2.97;;;10.60;1.00;;;;;;5127841;27;20453;-79
2023/11/14 06:26:27;;;;;;;9.53;3.40;;;10.70;1.00;;;;;;5136684;27;20450;-76
2023/11/14 06:28:54;;;;;;;9.43;3.53;;;10.70;1.00;;;;;;5131177;27;20460;-76
2023/11/14 06:31:21;;;;;;;10.47;3.40;;;10.70;1.00;;;;;;5131408;27;20522;-77
2023/11/14 06:33:49;;;;;;;10.90;4.67;;;10.70;1.00;;;;;;5133472;27;20476;-77
2023/11/14 06:36:16;;;;;;;23.13;4.33;;;10.70;1.00;;;;;;5137998;27;20469;-78
2023/11/14 06:38:43;;;;;;;9.37;3.40;;;10.80;1.00;;;;;;5133081;27;20516;-75
2023/11/14 06:41:13;;;;;;;7.73;3.27;;;10.90;1.00;;;;;;5135645;27;20485;-77
2023/11/14 06:43:40;;;;;;;9.67;3.20;;;11.00;1.00;;;;;;5131675;27;20421;-75
2023/11/14 06:46:08;;;;;;;9.57;3.80;;;11.00;1.00;;;;;;5132246;27;20493;-75
2023/11/14 06:48:38;;;;;;;14.03;3.80;;;11.10;1.00;;;;;;5137351;27;21114;-77
2023/11/14 06:51:05;;;;;;;6.17;2.97;;;11.10;1.00;;;;;;5149380;27;20432;-78
2023/11/14 06:53:32;;;;;;;14.10;4.30;;;11.10;1.00;;;;;;5132966;27;20448;-75
2023/11/14 06:56:00;;;;;;;9.17;3.90;;;11.10;1.00;;;;;;5131131;27;20414;-77
2023/11/14 06:58:30;;;;;;;13.87;4.77;;;11.20;1.00;;;;;;5152154;27;20479;-78
2023/11/14 07:00:57;;;;;;;11.07;3.97;;;11.20;1.00;;;;;;5137403;27;20562;-78
2023/11/14 07:03:24;;;;;;;10.33;3.90;;;11.20;1.00;;;;;;5130021;27;20426;-77
2023/11/14 07:05:51;;;;;;;9.43;3.57;;;11.20;1.00;;;;;;5129420;27;20972;-76
2023/11/14 07:08:18;;;;;;;8.43;3.83;;;11.30;1.00;;;;;;5131245;27;20461;-74
2023/11/14 07:10:46;;;;;;;6.20;3.43;;;11.30;1.00;;;;;;5129044;27;20547;-74
2023/11/14 07:13:13;;;;;;;8.13;3.73;;;11.30;1.00;;;;;;5124454;27;20497;-73
2023/11/14 07:15:41;;;;;;;8.40;4.03;;;11.30;1.00;;;;;;5130900;27;20560;-75
2023/11/14 07:18:09;;;;;;;5.90;4.07;;;11.40;1.00;;;;;;5141633;27;20476;-74
2023/11/14 07:20:36;;;;;;;12.53;3.80;;;11.40;1.00;;;;;;5150333;27;21291;-74
2023/11/14 07:23:04;;;;;;;10.70;3.30;;;11.50;1.00;;;;;;5151242;27;20967;-76
2023/11/14 07:25:34;;;;;;;21.90;5.33;;;11.50;1.00;;;;;;5144629;27;21231;-74
2023/11/14 07:28:02;;;;;;;13.07;4.00;;;11.60;1.00;;;;;;5128981;27;20565;-74
2023/11/14 07:30:30;;;;;;;10.70;3.40;;;11.60;1.00;;;;;;5127799;27;20461;-73
2023/11/14 07:32:58;;;;;;;7.90;3.57;;;11.60;1.00;;;;;;5149442;27;20445;-75
2023/11/14 07:35:26;;;;;;;9.03;3.17;;;11.60;1.00;;;;;;5139218;27;21157;-76
2023/11/14 07:37:53;;;;;;;11.60;3.47;;;11.60;1.00;;;;;;5130415;27;20516;-74
2023/11/14 07:40:21;;;;;;;13.47;3.37;;;11.70;1.00;;;;;;5131360;27;20545;-74
2023/11/14 07:42:48;;;;;;;8.50;3.80;;;11.80;1.00;;;;;;5133563;27;20476;-75
2023/11/14 07:45:15;;;;;;;7.37;3.27;;;11.90;1.00;;;;;;5155056;27;20467;-77
2023/11/14 07:47:42;;;;;;;8.23;3.80;;;11.90;1.00;;;;;;5149348;27;21009;-75
2023/11/14 07:50:11;;;;;;;9.60;2.77;;;12.00;1.00;;;;;;5131144;27;20472;-74
2023/11/14 07:52:39;;;;;;;11.43;2.80;;;12.00;1.00;;;;;;5131592;27;20536;-75
2023/11/14 07:55:08;;;;;;;7.83;3.70;;;12.10;1.00;;;;;;5133754;27;20464;-74
2023/11/14 07:57:35;;;;;;;8.70;2.87;;;12.10;1.00;;;;;;5140435;27;20475;-74
2023/11/14 08:00:06;;;;;;;7.33;3.10;;;12.10;1.00;;;;;;5139963;27;20544;-77
2023/11/14 08:02:33;;;;;;;8.10;2.80;;;12.20;1.00;;;;;;5148641;27;20468;-74
2023/11/14 08:05:00;;;;;;;5.57;2.70;;;12.20;1.00;;;;;;5152640;27;20553;-75
2023/11/14 08:07:29;;;;;;;13.73;3.20;;;12.20;1.00;;;;;;5148149;27;20553;-74
2023/11/14 08:09:55;;;;;;;7.10;3.20;;;12.30;1.00;;;;;;5153561;27;21781;-74
2023/11/14 08:12:23;;;;;;;10.50;2.83;;;12.30;1.00;;;;;;5151536;27;20979;-75
2023/11/14 08:14:50;;;;;;;6.27;3.07;;;12.40;1.00;;;;;;5133943;27;20465;-75
2023/11/14 08:17:18;;;;;;;9.47;3.47;;;12.30;1.00;;;;;;5155757;27;20464;-74
2023/11/14 08:19:45;;;;;;;7.77;2.80;;;12.40;1.00;;;;;;5150952;27;21287;-70
2023/11/14 08:22:12;;;;;;;10.67;3.40;;;12.50;1.00;;;;;;5150157;27;20684;-77
2023/11/14 08:24:40;;;;;;;10.20;3.70;;;12.60;1.00;;;;;;5150939;27;21296;-72
2023/11/14 08:27:07;;;;;;;8.07;2.80;;;12.60;1.00;;;;;;5144331;27;20461;-71
2023/11/14 08:29:36;;;;;;;8.43;3.03;;;12.70;1.00;;;;;;5125811;27;20541;-71
2023/11/14 08:32:04;;;;;;;7.30;3.30;;;12.70;1.00;;;;;;5140968;27;20799;-71
2023/11/14 08:34:32;;;;;;;10.43;3.87;;;12.70;1.00;;;;;;5152310;27;20454;-71
2023/11/14 08:37:00;;;;;;;10.80;3.73;;;12.60;1.00;;;;;;5150312;27;20557;-72
2023/11/14 08:39:27;;;;;;;13.27;3.60;;;12.50;1.00;;;;;;5151321;27;20445;-70
2023/11/14 08:41:55;;;;;;;11.10;4.50;;;12.50;1.00;;;;;;5130721;27;20540;-73
2023/11/14 08:44:24;;;;;;;9.97;4.20;;;12.40;1.00;;;;;;5117966;27;20966;-71
2023/11/14 08:46:52;;;;;;;16.27;4.93;;;12.40;1.00;;;;;;5138134;27;20470;-71
2023/11/14 08:49:20;;;;;;;11.30;3.43;;;12.40;1.00;;;;;;5151502;27;20960;-71
2023/11/14 08:51:47;;;;;;;12.47;3.73;;;12.50;1.00;;;;;;5140490;27;21002;-70
2023/11/14 08:54:14;;;;;;;8.50;3.50;;;12.50;1.00;;;;;;5128532;27;20481;-71
2023/11/14 08:56:42;;;;;;;8.77;3.67;;;12.50;1.00;;;;;;5149367;27;20666;-71
2023/11/14 08:59:12;;;;;;;6.53;2.97;;;12.60;1.00;;;;;;5131828;27;20458;-70
2023/11/14 09:01:38;;;;;;;6.97;3.70;;;12.70;1.00;;;;;;5131985;27;20518;-71
2023/11/14 09:04:10;;;;;;;8.47;2.93;;;12.70;1.00;;;;;;5148177;27;20528;-70
2023/11/14 09:06:37;;;;;;;11.90;3.40;;;12.80;1.00;;;;;;5129227;27;21367;-70
2023/11/14 09:09:05;;;;;;;10.13;3.63;;;12.90;1.00;;;;;;5130197;27;20528;-71
2023/11/14 09:11:31;;;;;;;9.07;2.87;;;12.90;1.00;;;;;;5130856;27;20532;-74
2023/11/14 09:13:59;;;;;;;12.30;3.50;;;12.90;1.00;;;;;;5126739;27;20453;-70
2023/11/14 09:16:27;;;;;;;11.13;3.60;;;12.90;1.00;;;;;;5128083;27;20978;-72
2023/11/14 09:18:55;;;;;;;8.30;3.47;;;12.90;1.00;;;;;;5126210;27;20470;-72
2023/11/14 09:21:21;;;;;;;12.50;3.87;;;12.90;1.00;;;;;;5144144;27;20454;-72
2023/11/14 09:23:48;;;;;;;9.20;3.53;;;12.90;1.00;;;;;;5150995;27;20479;-72
2023/11/14 09:26:15;;;;;;;8.63;3.00;;;12.90;1.00;;;;;;5142669;27;20462;-71
2023/11/14 09:28:42;;;;;;;8.40;4.00;;;12.90;1.00;;;;;;5151440;27;20513;-75
2023/11/14 09:31:09;;;;;;;6.40;2.80;;;12.90;1.00;;;;;;5148047;27;20976;-74
2023/11/14 09:33:38;;;;;;;13.20;4.50;;;13.00;1.00;;;;;;5142299;27;20523;-74
2023/11/14 09:36:06;;;;;;;8.00;3.30;;;13.20;1.00;;;;;;5130281;27;20466;-75
2023/11/14 09:38:33;;;;;;;7.87;2.73;;;13.20;1.00;;;;;;5130869;27;20819;-76
2023/11/14 09:41:02;;;;;;;7.87;3.03;;;13.20;1.00;;;;;;5151367;27;20470;-75
2023/11/14 09:43:29;;;;;;;9.47;3.43;;;13.20;1.00;;;;;;5143185;27;20456;-75
2023/11/14 09:45:58;;;;;;;8.30;3.33;;;13.20;1.00;;;;;;5150197;27;20558;-76
2023/11/14 09:48:26;;;;;;;7.57;3.10;;;13.20;1.00;;;;;;5150723;27;20461;-76
2023/11/14 09:50:55;;;;;;;8.67;3.50;;;13.30;1.00;;;;;;5150259;27;20950;-76
2023/11/14 09:53:24;;;;;;;12.07;3.77;;;13.40;1.00;;;;;;5152918;27;20515;-77
2023/11/14 09:55:53;;;;;;;7.30;3.53;;;13.50;1.00;;;;;;5150088;27;20531;-78
2023/11/14 09:58:21;;;;;;;7.07;3.20;;;13.60;1.00;;;;;;5127535;27;20504;-76
2023/11/14 10:00:49;;;;;;;9.30;3.33;;;13.70;1.00;;;;;;5141490;27;21038;-77
2023/11/14 10:03:16;;;;;;;8.63;2.93;;;13.80;1.00;;;;;;5150459;27;20450;-77
2023/11/14 10:05:43;;;;;;;11.63;3.93;;;13.90;1.00;;;;;;5149432;27;20499;-75
2023/11/14 10:08:15;;;;;;;9.90;3.77;;;13.90;1.00;;;;;;5129304;27;21218;-79
2023/11/14 10:11:04;;;;;;;11.33;3.30;;;13.90;1.00;;;;;;5127473;27;20634;-76
2023/11/14 10:13:31;;;;;;;8.40;3.27;;;13.80;1.00;;;;;;5127977;27;20560;-77
2023/11/14 10:16:13;;;;;;;7.67;3.30;;;13.80;1.00;;;;;;5131176;27;20555;-76
2023/11/14 10:18:40;;;;;;;9.57;2.80;;;13.70;1.00;;;;;;5128191;27;20484;-76
2023/11/14 10:21:23;;;;;;;8.33;4.07;;;13.50;1.00;;;;;;5143248;27;21052;-77
2023/11/14 10:23:52;;;;;;;8.00;3.73;;;13.50;1.00;;;;;;5146737;27;20532;-76
2023/11/14 10:26:19;;;;;;;8.70;2.90;;;13.50;1.00;;;;;;5136089;27;20472;-79
2023/11/14 10:28:54;;;;;;;9.67;3.63;;;13.50;1.00;;;;;;5128461;27;20530;-76
2023/11/14 10:31:35;;;;;;;7.70;3.70;;;13.50;1.00;;;;;;5141038;27;20463;-74
2023/11/14 10:34:02;;;;;;;9.10;4.37;;;13.50;1.00;;;;;;5131592;27;20468;-78
2023/11/14 10:36:29;;;;;;;11.03;2.93;;;13.70;1.00;;;;;;5126887;27;20499;-76
2023/11/14 10:39:04;;;;;;;12.73;4.83;;;13.80;1.00;;;;;;5126024;27;20971;-74
2023/11/14 10:41:33;;;;;;;6.67;2.57;;;14.10;1.00;;;;;;5126781;27;20470;-71
2023/11/14 10:44:09;;;;;;;9.87;2.87;;;14.10;1.00;;;;;;5141717;27;20451;-73
2023/11/14 10:46:38;;;;;;;6.00;2.80;;;14.30;1.00;;;;;;5143115;27;20474;-72
2023/11/14 10:49:09;;;;;;;7.90;2.90;;;14.60;1.00;;;;;;5148226;27;20501;-73
2023/11/14 10:51:37;;;;;;;11.80;3.67;;;14.80;1.00;;;;;;5138927;27;20472;-71
2023/11/14 10:54:06;;;;;;;7.80;3.10;;;15.00;1.00;;;;;;5132133;27;20450;-77
2023/11/14 10:56:35;;;;;;;9.30;3.93;;;15.00;1.00;;;;;;5139119;27;20471;-73
2023/11/14 10:59:04;;;;;;;14.10;3.23;;;14.90;1.00;;;;;;5127267;27;20505;-72
2023/11/14 11:01:34;;;;;;;8.93;3.70;;;14.80;1.00;;;;;;5136606;27;20462;-70
2023/11/14 11:04:02;;;;;;;8.30;2.90;;;14.80;1.00;;;;;;5134786;27;20444;-72
2023/11/14 11:06:31;;;;;;;6.80;3.00;;;14.70;1.00;;;;;;5132393;27;20819;-71
2023/11/14 11:08:59;;;;;;;11.53;3.47;;;14.70;1.00;;;;;;5146058;27;20476;-74
2023/11/14 11:11:37;;;;;;;6.77;3.10;;;14.70;1.00;;;;;;5130638;27;20455;-72
2023/11/14 11:14:07;;;;;;;4.80;2.80;;;14.70;1.00;;;;;;5147578;27;20461;-71
2023/11/14 11:16:44;;;;;;;5.67;2.90;;;14.50;1.00;;;;;;5148600;27;20592;-71
2023/11/14 11:19:17;;;;;;;7.40;2.70;;;14.40;1.00;;;;;;5152413;27;20486;-74
2023/11/14 11:22:07;;;;;;;8.83;3.20;;;14.50;1.00;;;;;;5154423;27;20551;-71
2023/11/14 11:24:35;;;;;;;8.40;3.40;;;14.60;1.00;;;;;;5151571;27;20458;-73
2023/11/14 11:27:19;;;;;;;7.50;3.00;;;14.50;1.00;;;;;;5152417;27;21294;-70
2023/11/14 11:29:50;;;;;;;7.90;3.63;;;14.50;1.00;;;;;;5152506;27;20468;-70
2023/11/14 11:32:31;;;;;;;9.70;3.23;;;14.40;1.00;;;;;;5133843;27;20468;-71
2023/11/14 11:35:27;;;;;;;10.30;3.10;;;14.40;1.00;;;;;;5136552;27;20463;-72
2023/11/14 11:37:55;;;;;;;9.43;3.60;;;14.50;1.00;;;;;;5126977;27;21126;-72
2023/11/14 11:40:25;;;;;;;6.57;3.13;;;14.60;1.00;;;;;;5129354;27;20456;-73
2023/11/14 11:42:55;;;;;;;8.50;3.63;;;14.50;1.00;;;;;;5129578;27;21058;-71
2023/11/14 11:45:38;;;;;;;8.13;3.03;;;14.50;1.00;;;;;;5138653;27;20467;-72
2023/11/14 11:48:27;;;;;;;7.60;3.17;;;14.50;1.00;;;;;;5153261;27;20558;-71
2023/11/14 11:50:54;;;;;;;7.57;3.60;;;14.40;1.00;;;;;;5133480;27;20447;-76
2023/11/14 11:53:42;;;;;;;10.90;4.00;;;14.30;1.00;;;;;;5145157;27;20450;-76
2023/11/14 11:56:12;;;;;;;5.77;3.20;;;14.20;1.00;;;;;;5148569;27;20450;-76
2023/11/14 11:58:48;;;;;;;6.43;3.17;;;14.10;1.00;;;;;;5149556;27;20470;-74
2023/11/14 12:01:16;;;;;;;8.03;3.60;;;14.10;1.00;;;;;;5145145;27;20482;-75
2023/11/14 12:03:44;;;;;;;5.27;3.47;;;14.00;1.00;;;;;;5133254;27;22270;-76
2023/11/14 12:06:13;;;;;;;11.00;5.43;;;14.00;1.00;;;;;;5151013;27;20458;-74
2023/11/14 12:08:40;;;;;;;10.00;2.77;;;14.00;1.00;;;;;;5129964;27;20899;-75
2023/11/14 12:11:14;;;;;;;10.00;3.20;;;14.00;1.00;;;;;;5139986;27;20600;-76
2023/11/14 12:13:53;;;;;;;6.53;3.43;;;14.10;1.00;;;;;;5150764;27;20902;-75
2023/11/14 12:16:21;;;;;;;6.20;3.20;;;14.10;1.00;;;;;;5139720;27;20484;-76
2023/11/14 12:18:48;;;;;;;9.20;3.50;;;14.10;1.00;;;;;;5145935;27;21045;-75
2023/11/14 12:21:17;;;;;;;11.23;3.53;;;14.10;1.00;;;;;;5144303;27;20458;-76
2023/11/14 12:23:45;;;;;;;10.00;3.90;;;14.10;1.00;;;;;;5151223;27;20964;-75
2023/11/14 12:26:14;;;;;;;10.73;4.30;;;14.10;1.00;;;;;;5127909;27;20446;-75
2023/11/14 12:28:43;;;;;;;10.17;3.40;;;14.00;1.00;;;;;;5149492;27;20493;-77
2023/11/14 12:31:13;;;;;;;12.30;3.50;;;14.00;1.00;;;;;;5129853;27;20442;-76
2023/11/14 12:33:49;;;;;;;13.10;3.70;;;14.00;1.00;;;;;;5149057;27;20557;-74
2023/11/14 12:36:23;;;;;;;10.30;3.30;;;14.00;1.00;;;;;;5150141;27;21643;-75
2023/11/14 12:38:51;;;;;;;7.13;3.17;;;14.00;1.00;;;;;;5146857;27;20554;-74
2023/11/14 12:41:20;;;;;;;11.50;4.00;;;14.00;1.00;;;;;;5130951;27;20551;-74
2023/11/14 12:43:50;;;;;;;12.17;4.20;;;14.00;1.00;;;;;;5129545;27;20463;-74
2023/11/14 12:46:29;;;;;;;9.90;3.20;;;14.00;1.00;;;;;;5135846;27;20597;-74
2023/11/14 12:49:14;;;;;;;7.97;3.60;;;14.00;1.00;;;;;;5135119;27;21034;-75
2023/11/14 12:51:44;;;;;;;8.10;3.13;;;14.00;1.00;;;;;;5147172;27;20454;-75
2023/11/14 12:54:11;;;;;;;9.20;3.83;;;14.00;1.00;;;;;;5145350;27;20559;-74
2023/11/14 12:56:39;;;;;;;8.80;3.60;;;14.10;1.00;;;;;;5125976;27;20557;-74
2023/11/14 12:59:07;;;;;;;5.13;2.90;;;14.10;1.00;;;;;;5129620;27;20883;-75
2023/11/14 13:01:36;;;;;;;5.50;3.70;;;14.10;1.00;;;;;;5126977;27;20455;-74
2023/11/14 13:04:06;;;;;;;7.00;2.90;;;14.00;1.00;;;;;;5131694;27;20458;-75